Ana Sayfa
METAR-TAF:

METAR-TAF

Havaalanları :

Clovis, New Mexico, Amerika Birleşik Devletleri

Enlem: 34-26N, Boylam: 103-05W, yükseklik: 1284 m

Güncel hava durumu gözlemi

Rapor saat 04:56 UTC de 27 dakika önce yapıldı.
Rüzgar güney/güneybatıdan 8 kt
Sıcaklık 28°C
Nem 40%
Basınç 1015 hPa
Görüş mesafesi: 16.1 km
Açık gökyüzü

METAR: KCVN 210456Z AUTO 20008KT 10SM CLR 28/13 A2998 RMK AO2 SLP091 T02780128

Saat: 23:23 (05:23 UTC)


TAF: eksik

4.000'den fazla havaalanı için hava durumu gözlemleri ve tahminleri (METAR ve TAF raporları).

Kullanılabilir istasyonlar harita üzerinde sarı ve kırmızı noktalarla gösterilir.

İstasyonun adını görmek için fareyi noktanın üzerinde gezdirin.

Sonrasında hava gözlem ve tahminlerini görmek için tıklayın.

Haritayı değiştirmek için: yaklaştırmak için siyah artı işaretli yeşil düğmeye ve uzaklaştırmak için de eksi işaretli düğmeye hızla tıklayın; bitişik haritalar için yeşil okları kullanın.


METAR-TAF: